sensor_id;sensor_type;location;lat;lon;timestamp;P1;durP1;ratioP1;P2;durP2;ratioP2
17177;SDS011;8704;52.006;4.374;2023-04-24T00:00:17;20.23;;;18.77;;
17177;SDS011;8704;52.006;4.374;2023-04-24T00:02:45;18.27;;;16.77;;
17177;SDS011;8704;52.006;4.374;2023-04-24T00:05:14;12.23;;;11.25;;
17177;SDS011;8704;52.006;4.374;2023-04-24T00:07:43;11.10;;;10.13;;
17177;SDS011;8704;52.006;4.374;2023-04-24T00:10:13;11.10;;;10.07;;
17177;SDS011;8704;52.006;4.374;2023-04-24T00:12:41;8.23;;;7.13;;
17177;SDS011;8704;52.006;4.374;2023-04-24T00:15:09;7.05;;;4.45;;
17177;SDS011;8704;52.006;4.374;2023-04-24T00:17:38;8.10;;;7.32;;
17177;SDS011;8704;52.006;4.374;2023-04-24T00:20:06;10.23;;;8.38;;
17177;SDS011;8704;52.006;4.374;2023-04-24T00:22:36;9.52;;;8.63;;
17177;SDS011;8704;52.006;4.374;2023-04-24T00:25:04;10.40;;;9.38;;
17177;SDS011;8704;52.006;4.374;2023-04-24T00:27:34;11.60;;;10.50;;
17177;SDS011;8704;52.006;4.374;2023-04-24T00:30:03;12.98;;;12.07;;
17177;SDS011;8704;52.006;4.374;2023-04-24T00:32:32;9.98;;;8.98;;
17177;SDS011;8704;52.006;4.374;2023-04-24T00:35:00;13.27;;;12.02;;
17177;SDS011;8704;52.006;4.374;2023-04-24T00:37:28;8.65;;;5.75;;
17177;SDS011;8704;52.006;4.374;2023-04-24T00:39:56;9.68;;;7.63;;
17177;SDS011;8704;52.006;4.374;2023-04-24T00:42:24;8.38;;;7.50;;
17177;SDS011;8704;52.006;4.374;2023-04-24T00:44:54;7.78;;;5.65;;
17177;SDS011;8704;52.006;4.374;2023-04-24T00:47:23;7.45;;;6.88;;
17177;SDS011;8704;52.006;4.374;2023-04-24T00:49:52;8.95;;;8.07;;
17177;SDS011;8704;52.006;4.374;2023-04-24T00:52:20;10.77;;;9.88;;
17177;SDS011;8704;52.006;4.374;2023-04-24T00:54:50;7.88;;;7.10;;
17177;SDS011;8704;52.006;4.374;2023-04-24T00:57:18;8.43;;;7.22;;
17177;SDS011;8704;52.006;4.374;2023-04-24T00:59:47;8.60;;;7.70;;
17177;SDS011;8704;52.006;4.374;2023-04-24T01:02:17;8.25;;;7.45;;
17177;SDS011;8704;52.006;4.374;2023-04-24T01:04:46;10.18;;;9.18;;
17177;SDS011;8704;52.006;4.374;2023-04-24T01:07:14;9.23;;;8.55;;
17177;SDS011;8704;52.006;4.374;2023-04-24T01:09:42;7.88;;;6.97;;
17177;SDS011;8704;52.006;4.374;2023-04-24T01:12:13;7.75;;;6.95;;
17177;SDS011;8704;52.006;4.374;2023-04-24T01:14:42;10.23;;;9.50;;
17177;SDS011;8704;52.006;4.374;2023-04-24T01:17:10;11.43;;;10.63;;
17177;SDS011;8704;52.006;4.374;2023-04-24T01:19:39;8.35;;;7.70;;
17177;SDS011;8704;52.006;4.374;2023-04-24T01:22:10;8.55;;;7.85;;
17177;SDS011;8704;52.006;4.374;2023-04-24T01:24:38;10.30;;;9.70;;
17177;SDS011;8704;52.006;4.374;2023-04-24T01:27:07;10.80;;;9.90;;
17177;SDS011;8704;52.006;4.374;2023-04-24T01:29:36;11.93;;;11.02;;
17177;SDS011;8704;52.006;4.374;2023-04-24T01:32:05;12.45;;;11.55;;
17177;SDS011;8704;52.006;4.374;2023-04-24T01:34:33;12.18;;;11.27;;
17177;SDS011;8704;52.006;4.374;2023-04-24T01:37:01;14.35;;;13.25;;
17177;SDS011;8704;52.006;4.374;2023-04-24T01:39:32;13.13;;;12.18;;
17177;SDS011;8704;52.006;4.374;2023-04-24T01:42:00;15.30;;;14.20;;
17177;SDS011;8704;52.006;4.374;2023-04-24T01:44:28;14.15;;;13.07;;
17177;SDS011;8704;52.006;4.374;2023-04-24T01:46:57;10.35;;;9.35;;
17177;SDS011;8704;52.006;4.374;2023-04-24T01:49:27;11.40;;;10.60;;
17177;SDS011;8704;52.006;4.374;2023-04-24T01:51:55;11.30;;;10.50;;
17177;SDS011;8704;52.006;4.374;2023-04-24T01:54:23;12.70;;;11.55;;
17177;SDS011;8704;52.006;4.374;2023-04-24T01:56:52;10.38;;;9.63;;
17177;SDS011;8704;52.006;4.374;2023-04-24T01:59:20;9.90;;;9.07;;
17177;SDS011;8704;52.006;4.374;2023-04-24T02:01:50;10.80;;;9.82;;
17177;SDS011;8704;52.006;4.374;2023-04-24T02:04:18;11.00;;;10.20;;
17177;SDS011;8704;52.006;4.374;2023-04-24T02:06:46;11.30;;;10.30;;
17177;SDS011;8704;52.006;4.374;2023-04-24T02:09:14;12.32;;;11.43;;
17177;SDS011;8704;52.006;4.374;2023-04-24T02:11:42;8.77;;;8.00;;
17177;SDS011;8704;52.006;4.374;2023-04-24T02:14:12;11.02;;;8.90;;
17177;SDS011;8704;52.006;4.374;2023-04-24T02:16:40;9.02;;;8.32;;
17177;SDS011;8704;52.006;4.374;2023-04-24T02:19:08;8.10;;;7.13;;
17177;SDS011;8704;52.006;4.374;2023-04-24T02:21:36;6.43;;;5.82;;
17177;SDS011;8704;52.006;4.374;2023-04-24T02:24:04;7.72;;;7.03;;
17177;SDS011;8704;52.006;4.374;2023-04-24T02:26:32;11.18;;;10.32;;
17177;SDS011;8704;52.006;4.374;2023-04-24T02:29:00;8.50;;;7.80;;
17177;SDS011;8704;52.006;4.374;2023-04-24T02:31:30;5.97;;;5.25;;
17177;SDS011;8704;52.006;4.374;2023-04-24T02:33:58;5.72;;;4.55;;
17177;SDS011;8704;52.006;4.374;2023-04-24T02:36:26;6.80;;;3.67;;
17177;SDS011;8704;52.006;4.374;2023-04-24T02:38:54;4.93;;;2.65;;
17177;SDS011;8704;52.006;4.374;2023-04-24T02:41:22;4.55;;;3.30;;
17177;SDS011;8704;52.006;4.374;2023-04-24T02:43:50;7.00;;;3.60;;
17177;SDS011;8704;52.006;4.374;2023-04-24T02:46:18;3.20;;;2.90;;
17177;SDS011;8704;52.006;4.374;2023-04-24T02:48:47;5.68;;;3.50;;
17177;SDS011;8704;52.006;4.374;2023-04-24T02:51:15;3.90;;;2.47;;
17177;SDS011;8704;52.006;4.374;2023-04-24T02:53:43;6.07;;;3.35;;
17177;SDS011;8704;52.006;4.374;2023-04-24T02:56:11;4.72;;;4.22;;
17177;SDS011;8704;52.006;4.374;2023-04-24T02:58:39;8.55;;;4.05;;
17177;SDS011;8704;52.006;4.374;2023-04-24T03:01:08;7.00;;;4.97;;
17177;SDS011;8704;52.006;4.374;2023-04-24T03:03:36;7.03;;;6.32;;
17177;SDS011;8704;52.006;4.374;2023-04-24T03:06:06;9.80;;;6.10;;
17177;SDS011;8704;52.006;4.374;2023-04-24T03:08:35;7.72;;;4.07;;
17177;SDS011;8704;52.006;4.374;2023-04-24T03:11:03;6.00;;;5.40;;
17177;SDS011;8704;52.006;4.374;2023-04-24T03:13:31;10.20;;;6.75;;
17177;SDS011;8704;52.006;4.374;2023-04-24T03:15:59;8.05;;;7.28;;
17177;SDS011;8704;52.006;4.374;2023-04-24T03:18:27;9.35;;;8.55;;
17177;SDS011;8704;52.006;4.374;2023-04-24T03:20:55;8.68;;;7.88;;
17177;SDS011;8704;52.006;4.374;2023-04-24T03:23:24;10.30;;;9.60;;
17177;SDS011;8704;52.006;4.374;2023-04-24T03:25:52;12.48;;;11.38;;
17177;SDS011;8704;52.006;4.374;2023-04-24T03:28:21;11.13;;;10.23;;
17177;SDS011;8704;52.006;4.374;2023-04-24T03:30:48;6.97;;;6.40;;
17177;SDS011;8704;52.006;4.374;2023-04-24T03:33:16;6.63;;;5.97;;
17177;SDS011;8704;52.006;4.374;2023-04-24T03:35:44;7.95;;;7.35;;
17177;SDS011;8704;52.006;4.374;2023-04-24T03:38:13;6.82;;;6.25;;
17177;SDS011;8704;52.006;4.374;2023-04-24T03:40:42;7.43;;;6.75;;
17177;SDS011;8704;52.006;4.374;2023-04-24T03:43:10;6.57;;;5.97;;
17177;SDS011;8704;52.006;4.374;2023-04-24T03:45:38;5.30;;;4.57;;
17177;SDS011;8704;52.006;4.374;2023-04-24T03:48:06;7.47;;;6.65;;
17177;SDS011;8704;52.006;4.374;2023-04-24T03:50:34;7.88;;;7.18;;
17177;SDS011;8704;52.006;4.374;2023-04-24T03:53:02;9.77;;;9.02;;
17177;SDS011;8704;52.006;4.374;2023-04-24T03:55:30;6.45;;;5.65;;
17177;SDS011;8704;52.006;4.374;2023-04-24T03:58:00;7.85;;;5.35;;
17177;SDS011;8704;52.006;4.374;2023-04-24T04:00:28;9.20;;;6.90;;
17177;SDS011;8704;52.006;4.374;2023-04-24T04:02:59;8.70;;;6.35;;
17177;SDS011;8704;52.006;4.374;2023-04-24T04:05:28;8.00;;;4.45;;
17177;SDS011;8704;52.006;4.374;2023-04-24T04:07:56;3.30;;;2.90;;
17177;SDS011;8704;52.006;4.374;2023-04-24T04:10:24;6.43;;;4.07;;
17177;SDS011;8704;52.006;4.374;2023-04-24T04:12:52;6.65;;;4.25;;
17177;SDS011;8704;52.006;4.374;2023-04-24T04:15:21;6.93;;;4.57;;
17177;SDS011;8704;52.006;4.374;2023-04-24T04:17:49;8.82;;;5.57;;
17177;SDS011;8704;52.006;4.374;2023-04-24T04:20:17;9.60;;;5.75;;
17177;SDS011;8704;52.006;4.374;2023-04-24T04:22:45;11.07;;;6.07;;
17177;SDS011;8704;52.006;4.374;2023-04-24T04:25:13;12.70;;;8.07;;
17177;SDS011;8704;52.006;4.374;2023-04-24T04:27:42;11.20;;;9.73;;
17177;SDS011;8704;52.006;4.374;2023-04-24T04:30:10;11.27;;;7.50;;
17177;SDS011;8704;52.006;4.374;2023-04-24T04:32:40;10.18;;;6.57;;
17177;SDS011;8704;52.006;4.374;2023-04-24T04:35:08;13.63;;;6.75;;
17177;SDS011;8704;52.006;4.374;2023-04-24T04:37:36;12.13;;;6.60;;
17177;SDS011;8704;52.006;4.374;2023-04-24T04:40:04;10.75;;;8.25;;
17177;SDS011;8704;52.006;4.374;2023-04-24T04:42:33;12.93;;;7.88;;
17177;SDS011;8704;52.006;4.374;2023-04-24T04:45:01;19.20;;;12.00;;
17177;SDS011;8704;52.006;4.374;2023-04-24T04:47:30;18.92;;;13.18;;
17177;SDS011;8704;52.006;4.374;2023-04-24T04:50:00;15.07;;;10.90;;
17177;SDS011;8704;52.006;4.374;2023-04-24T04:52:30;14.98;;;12.95;;
17177;SDS011;8704;52.006;4.374;2023-04-24T04:54:58;18.70;;;14.40;;
17177;SDS011;8704;52.006;4.374;2023-04-24T04:57:26;21.20;;;16.75;;
17177;SDS011;8704;52.006;4.374;2023-04-24T04:59:54;21.00;;;14.70;;
17177;SDS011;8704;52.006;4.374;2023-04-24T05:02:22;21.63;;;13.23;;
17177;SDS011;8704;52.006;4.374;2023-04-24T05:04:50;17.00;;;14.15;;
17177;SDS011;8704;52.006;4.374;2023-04-24T05:07:20;24.17;;;13.82;;
17177;SDS011;8704;52.006;4.374;2023-04-24T05:09:48;17.02;;;11.88;;
17177;SDS011;8704;52.006;4.374;2023-04-24T05:12:17;24.23;;;14.82;;
17177;SDS011;8704;52.006;4.374;2023-04-24T05:14:45;24.15;;;13.18;;
17177;SDS011;8704;52.006;4.374;2023-04-24T05:17:13;17.25;;;10.27;;
17177;SDS011;8704;52.006;4.374;2023-04-24T05:19:41;23.75;;;13.80;;
17177;SDS011;8704;52.006;4.374;2023-04-24T05:22:10;27.05;;;15.00;;
17177;SDS011;8704;52.006;4.374;2023-04-24T05:24:39;21.77;;;12.73;;
17177;SDS011;8704;52.006;4.374;2023-04-24T05:27:07;22.20;;;13.88;;
17177;SDS011;8704;52.006;4.374;2023-04-24T05:29:35;25.67;;;13.60;;
17177;SDS011;8704;52.006;4.374;2023-04-24T05:32:03;22.02;;;13.77;;
17177;SDS011;8704;52.006;4.374;2023-04-24T05:34:31;21.23;;;12.07;;
17177;SDS011;8704;52.006;4.374;2023-04-24T05:36:59;23.08;;;15.55;;
17177;SDS011;8704;52.006;4.374;2023-04-24T05:39:28;28.88;;;16.65;;
17177;SDS011;8704;52.006;4.374;2023-04-24T05:41:57;25.73;;;15.30;;
17177;SDS011;8704;52.006;4.374;2023-04-24T05:44:25;23.52;;;15.55;;
17177;SDS011;8704;52.006;4.374;2023-04-24T05:46:53;20.95;;;12.38;;
17177;SDS011;8704;52.006;4.374;2023-04-24T05:49:22;21.10;;;12.45;;
17177;SDS011;8704;52.006;4.374;2023-04-24T05:51:50;22.23;;;13.57;;
17177;SDS011;8704;52.006;4.374;2023-04-24T05:54:18;26.10;;;11.88;;
17177;SDS011;8704;52.006;4.374;2023-04-24T05:56:46;25.80;;;14.25;;
17177;SDS011;8704;52.006;4.374;2023-04-24T05:59:15;27.52;;;14.85;;
17177;SDS011;8704;52.006;4.374;2023-04-24T06:01:43;28.65;;;12.90;;
17177;SDS011;8704;52.006;4.374;2023-04-24T06:04:11;22.42;;;12.05;;
17177;SDS011;8704;52.006;4.374;2023-04-24T06:06:41;24.33;;;12.13;;
17177;SDS011;8704;52.006;4.374;2023-04-24T06:09:09;27.88;;;11.98;;
17177;SDS011;8704;52.006;4.374;2023-04-24T06:11:38;20.00;;;7.32;;
17177;SDS011;8704;52.006;4.374;2023-04-24T06:14:06;18.95;;;7.13;;
17177;SDS011;8704;52.006;4.374;2023-04-24T06:16:35;17.05;;;7.20;;
17177;SDS011;8704;52.006;4.374;2023-04-24T06:19:05;18.98;;;7.60;;
17177;SDS011;8704;52.006;4.374;2023-04-24T06:21:33;23.52;;;7.80;;
17177;SDS011;8704;52.006;4.374;2023-04-24T06:24:01;25.33;;;7.90;;
17177;SDS011;8704;52.006;4.374;2023-04-24T06:26:30;16.27;;;7.00;;
17177;SDS011;8704;52.006;4.374;2023-04-24T06:28:58;21.20;;;7.88;;
17177;SDS011;8704;52.006;4.374;2023-04-24T06:31:26;26.15;;;8.00;;
17177;SDS011;8704;52.006;4.374;2023-04-24T06:33:55;20.90;;;7.47;;
17177;SDS011;8704;52.006;4.374;2023-04-24T06:36:23;26.52;;;9.05;;
17177;SDS011;8704;52.006;4.374;2023-04-24T06:38:51;23.10;;;8.30;;
17177;SDS011;8704;52.006;4.374;2023-04-24T06:41:19;22.23;;;8.02;;
17177;SDS011;8704;52.006;4.374;2023-04-24T06:43:47;28.83;;;7.68;;
17177;SDS011;8704;52.006;4.374;2023-04-24T06:46:15;25.40;;;8.60;;
17177;SDS011;8704;52.006;4.374;2023-04-24T06:48:43;24.73;;;6.90;;
17177;SDS011;8704;52.006;4.374;2023-04-24T06:51:13;25.65;;;7.43;;
17177;SDS011;8704;52.006;4.374;2023-04-24T06:53:41;20.63;;;6.18;;
17177;SDS011;8704;52.006;4.374;2023-04-24T06:56:09;25.70;;;6.57;;
17177;SDS011;8704;52.006;4.374;2023-04-24T06:58:37;31.40;;;6.32;;
17177;SDS011;8704;52.006;4.374;2023-04-24T07:01:05;20.20;;;5.35;;
17177;SDS011;8704;52.006;4.374;2023-04-24T07:03:33;22.90;;;6.40;;
17177;SDS011;8704;52.006;4.374;2023-04-24T07:06:02;26.02;;;6.40;;
17177;SDS011;8704;52.006;4.374;2023-04-24T07:08:31;21.15;;;5.60;;
17177;SDS011;8704;52.006;4.374;2023-04-24T07:11:00;22.20;;;5.22;;
17177;SDS011;8704;52.006;4.374;2023-04-24T07:13:28;16.27;;;4.93;;
17177;SDS011;8704;52.006;4.374;2023-04-24T07:15:56;19.80;;;4.65;;
17177;SDS011;8704;52.006;4.374;2023-04-24T07:18:24;18.00;;;4.75;;
17177;SDS011;8704;52.006;4.374;2023-04-24T07:20:52;14.02;;;4.10;;
17177;SDS011;8704;52.006;4.374;2023-04-24T07:23:20;18.73;;;4.78;;
17177;SDS011;8704;52.006;4.374;2023-04-24T07:25:49;18.20;;;4.95;;
17177;SDS011;8704;52.006;4.374;2023-04-24T07:28:17;17.08;;;4.90;;
17177;SDS011;8704;52.006;4.374;2023-04-24T07:30:45;14.88;;;4.35;;
17177;SDS011;8704;52.006;4.374;2023-04-24T07:33:13;16.55;;;4.78;;
17177;SDS011;8704;52.006;4.374;2023-04-24T07:35:41;21.65;;;4.50;;
17177;SDS011;8704;52.006;4.374;2023-04-24T07:38:09;19.17;;;3.72;;
17177;SDS011;8704;52.006;4.374;2023-04-24T07:40:37;19.75;;;4.65;;
17177;SDS011;8704;52.006;4.374;2023-04-24T07:43:07;14.43;;;4.03;;
17177;SDS011;8704;52.006;4.374;2023-04-24T07:45:35;17.48;;;4.50;;
17177;SDS011;8704;52.006;4.374;2023-04-24T07:48:03;13.57;;;3.63;;
17177;SDS011;8704;52.006;4.374;2023-04-24T07:50:32;8.35;;;2.60;;
17177;SDS011;8704;52.006;4.374;2023-04-24T07:53:01;13.95;;;3.42;;
17177;SDS011;8704;52.006;4.374;2023-04-24T07:55:29;15.90;;;4.50;;
17177;SDS011;8704;52.006;4.374;2023-04-24T07:57:57;15.35;;;4.47;;
17177;SDS011;8704;52.006;4.374;2023-04-24T08:00:27;13.55;;;3.47;;
17177;SDS011;8704;52.006;4.374;2023-04-24T08:02:55;10.25;;;3.80;;
17177;SDS011;8704;52.006;4.374;2023-04-24T08:05:23;13.48;;;3.55;;
17177;SDS011;8704;52.006;4.374;2023-04-24T08:07:53;13.90;;;3.40;;
17177;SDS011;8704;52.006;4.374;2023-04-24T08:10:22;10.52;;;3.08;;
17177;SDS011;8704;52.006;4.374;2023-04-24T08:12:50;14.95;;;3.15;;
17177;SDS011;8704;52.006;4.374;2023-04-24T08:15:18;15.32;;;3.13;;
17177;SDS011;8704;52.006;4.374;2023-04-24T08:17:48;15.60;;;3.28;;
17177;SDS011;8704;52.006;4.374;2023-04-24T08:20:16;10.10;;;2.83;;
17177;SDS011;8704;52.006;4.374;2023-04-24T08:22:44;8.95;;;2.70;;
17177;SDS011;8704;52.006;4.374;2023-04-24T08:25:13;11.77;;;3.15;;
17177;SDS011;8704;52.006;4.374;2023-04-24T08:27:41;7.57;;;2.55;;
17177;SDS011;8704;52.006;4.374;2023-04-24T08:30:10;13.45;;;2.08;;
17177;SDS011;8704;52.006;4.374;2023-04-24T08:32:38;11.05;;;2.78;;
17177;SDS011;8704;52.006;4.374;2023-04-24T08:35:08;12.13;;;2.88;;
17177;SDS011;8704;52.006;4.374;2023-04-24T08:37:36;11.25;;;2.65;;
17177;SDS011;8704;52.006;4.374;2023-04-24T08:40:05;7.85;;;2.45;;
17177;SDS011;8704;52.006;4.374;2023-04-24T08:42:39;8.95;;;2.03;;
17177;SDS011;8704;52.006;4.374;2023-04-24T08:45:09;6.70;;;1.52;;
17177;SDS011;8704;52.006;4.374;2023-04-24T08:47:38;3.65;;;1.13;;
17177;SDS011;8704;52.006;4.374;2023-04-24T08:50:09;6.32;;;1.60;;
17177;SDS011;8704;52.006;4.374;2023-04-24T08:52:38;7.65;;;1.90;;
17177;SDS011;8704;52.006;4.374;2023-04-24T08:55:06;12.18;;;2.30;;
17177;SDS011;8704;52.006;4.374;2023-04-24T08:57:34;4.07;;;1.42;;
17177;SDS011;8704;52.006;4.374;2023-04-24T09:00:06;7.30;;;1.47;;
17177;SDS011;8704;52.006;4.374;2023-04-24T09:02:39;9.10;;;1.58;;
17177;SDS011;8704;52.006;4.374;2023-04-24T09:05:11;6.90;;;1.45;;
17177;SDS011;8704;52.006;4.374;2023-04-24T09:07:41;9.55;;;1.75;;
17177;SDS011;8704;52.006;4.374;2023-04-24T09:10:13;7.70;;;1.60;;
17177;SDS011;8704;52.006;4.374;2023-04-24T09:12:42;7.80;;;2.00;;
17177;SDS011;8704;52.006;4.374;2023-04-24T09:15:12;7.18;;;1.80;;
17177;SDS011;8704;52.006;4.374;2023-04-24T09:17:40;6.35;;;1.88;;
17177;SDS011;8704;52.006;4.374;2023-04-24T09:20:08;7.90;;;1.52;;
17177;SDS011;8704;52.006;4.374;2023-04-24T09:22:38;10.48;;;1.80;;
17177;SDS011;8704;52.006;4.374;2023-04-24T09:25:07;7.85;;;1.70;;
17177;SDS011;8704;52.006;4.374;2023-04-24T09:27:41;6.40;;;1.23;;
17177;SDS011;8704;52.006;4.374;2023-04-24T09:30:11;5.68;;;1.42;;
17177;SDS011;8704;52.006;4.374;2023-04-24T09:32:39;8.50;;;1.60;;
17177;SDS011;8704;52.006;4.374;2023-04-24T09:35:08;10.18;;;1.67;;
17177;SDS011;8704;52.006;4.374;2023-04-24T09:37:39;6.47;;;1.70;;
17177;SDS011;8704;52.006;4.374;2023-04-24T09:40:10;8.90;;;1.67;;
17177;SDS011;8704;52.006;4.374;2023-04-24T09:42:43;11.32;;;1.73;;
17177;SDS011;8704;52.006;4.374;2023-04-24T09:45:12;9.77;;;1.92;;
17177;SDS011;8704;52.006;4.374;2023-04-24T09:47:41;5.38;;;1.50;;
17177;SDS011;8704;52.006;4.374;2023-04-24T09:50:13;5.88;;;1.60;;
17177;SDS011;8704;52.006;4.374;2023-04-24T09:52:46;7.22;;;1.55;;
17177;SDS011;8704;52.006;4.374;2023-04-24T09:55:23;7.80;;;1.60;;
17177;SDS011;8704;52.006;4.374;2023-04-24T09:57:53;8.27;;;1.88;;
17177;SDS011;8704;52.006;4.374;2023-04-24T10:00:23;6.82;;;1.70;;
17177;SDS011;8704;52.006;4.374;2023-04-24T10:02:56;7.43;;;1.10;;
17177;SDS011;8704;52.006;4.374;2023-04-24T10:05:28;6.18;;;1.40;;
17177;SDS011;8704;52.006;4.374;2023-04-24T10:08:03;9.25;;;1.60;;
17177;SDS011;8704;52.006;4.374;2023-04-24T10:10:33;7.90;;;1.77;;
17177;SDS011;8704;52.006;4.374;2023-04-24T10:13:06;7.25;;;1.20;;
17177;SDS011;8704;52.006;4.374;2023-04-24T10:15:36;8.15;;;1.75;;
17177;SDS011;8704;52.006;4.374;2023-04-24T10:18:05;8.73;;;1.80;;
17177;SDS011;8704;52.006;4.374;2023-04-24T10:20:34;7.63;;;1.90;;
17177;SDS011;8704;52.006;4.374;2023-04-24T10:23:04;14.13;;;2.50;;
17177;SDS011;8704;52.006;4.374;2023-04-24T10:25:33;11.00;;;2.08;;
17177;SDS011;8704;52.006;4.374;2023-04-24T10:28:02;11.63;;;2.10;;
17177;SDS011;8704;52.006;4.374;2023-04-24T10:30:34;11.30;;;2.33;;
17177;SDS011;8704;52.006;4.374;2023-04-24T10:33:02;8.63;;;1.95;;
17177;SDS011;8704;52.006;4.374;2023-04-24T10:35:32;7.18;;;1.45;;
17177;SDS011;8704;52.006;4.374;2023-04-24T10:38:03;9.32;;;1.98;;
17177;SDS011;8704;52.006;4.374;2023-04-24T10:40:33;10.27;;;1.70;;
17177;SDS011;8704;52.006;4.374;2023-04-24T10:43:03;10.55;;;2.45;;
17177;SDS011;8704;52.006;4.374;2023-04-24T10:45:34;8.60;;;1.90;;
17177;SDS011;8704;52.006;4.374;2023-04-24T10:48:04;8.50;;;1.83;;
17177;SDS011;8704;52.006;4.374;2023-04-24T10:50:43;7.90;;;1.88;;
17177;SDS011;8704;52.006;4.374;2023-04-24T10:53:16;9.40;;;2.03;;
17177;SDS011;8704;52.006;4.374;2023-04-24T10:55:46;4.20;;;1.25;;
17177;SDS011;8704;52.006;4.374;2023-04-24T10:58:15;6.40;;;1.30;;
17177;SDS011;8704;52.006;4.374;2023-04-24T11:00:55;4.20;;;1.13;;
17177;SDS011;8704;52.006;4.374;2023-04-24T11:03:25;2.65;;;0.73;;
17177;SDS011;8704;52.006;4.374;2023-04-24T11:05:58;4.55;;;1.00;;
17177;SDS011;8704;52.006;4.374;2023-04-24T11:08:30;6.40;;;1.15;;
17177;SDS011;8704;52.006;4.374;2023-04-24T11:11:01;7.78;;;1.27;;
17177;SDS011;8704;52.006;4.374;2023-04-24T11:19:05;5.72;;;1.50;;
17177;SDS011;8704;52.006;4.374;2023-04-24T11:21:41;9.35;;;1.42;;
17177;SDS011;8704;52.006;4.374;2023-04-24T11:24:30;6.57;;;1.55;;
17177;SDS011;8704;52.006;4.374;2023-04-24T11:27:04;5.32;;;1.70;;
17177;SDS011;8704;52.006;4.374;2023-04-24T11:29:38;3.67;;;1.08;;
17177;SDS011;8704;52.006;4.374;2023-04-24T11:35:02;7.13;;;1.65;;
17177;SDS011;8704;52.006;4.374;2023-04-24T11:37:33;9.85;;;1.50;;
17177;SDS011;8704;52.006;4.374;2023-04-24T11:40:05;8.82;;;1.52;;
17177;SDS011;8704;52.006;4.374;2023-04-24T11:42:35;12.10;;;2.67;;
17177;SDS011;8704;52.006;4.374;2023-04-24T11:45:07;10.20;;;2.05;;
17177;SDS011;8704;52.006;4.374;2023-04-24T11:47:37;13.48;;;2.10;;
17177;SDS011;8704;52.006;4.374;2023-04-24T11:50:06;10.65;;;2.25;;
17177;SDS011;8704;52.006;4.374;2023-04-24T11:52:36;10.85;;;2.20;;
17177;SDS011;8704;52.006;4.374;2023-04-24T11:55:08;8.98;;;2.17;;
17177;SDS011;8704;52.006;4.374;2023-04-24T11:57:51;10.25;;;2.28;;
17177;SDS011;8704;52.006;4.374;2023-04-24T12:00:23;11.43;;;2.55;;
17177;SDS011;8704;52.006;4.374;2023-04-24T12:03:02;12.93;;;2.80;;
17177;SDS011;8704;52.006;4.374;2023-04-24T12:05:33;13.45;;;2.92;;
17177;SDS011;8704;52.006;4.374;2023-04-24T12:08:02;8.60;;;2.35;;
17177;SDS011;8704;52.006;4.374;2023-04-24T12:10:32;9.10;;;2.83;;
17177;SDS011;8704;52.006;4.374;2023-04-24T12:13:01;8.85;;;2.70;;
17177;SDS011;8704;52.006;4.374;2023-04-24T12:15:29;13.70;;;3.33;;
17177;SDS011;8704;52.006;4.374;2023-04-24T12:17:58;11.10;;;2.63;;
17177;SDS011;8704;52.006;4.374;2023-04-24T12:20:27;10.82;;;3.10;;
17177;SDS011;8704;52.006;4.374;2023-04-24T12:22:57;11.80;;;3.30;;
17177;SDS011;8704;52.006;4.374;2023-04-24T12:25:28;13.95;;;3.53;;
17177;SDS011;8704;52.006;4.374;2023-04-24T12:28:09;15.45;;;3.28;;
17177;SDS011;8704;52.006;4.374;2023-04-24T12:30:39;12.05;;;3.00;;
17177;SDS011;8704;52.006;4.374;2023-04-24T12:33:10;10.10;;;2.88;;
17177;SDS011;8704;52.006;4.374;2023-04-24T12:35:39;12.57;;;3.22;;
17177;SDS011;8704;52.006;4.374;2023-04-24T12:38:08;11.95;;;3.40;;
17177;SDS011;8704;52.006;4.374;2023-04-24T12:40:38;11.57;;;3.20;;
17177;SDS011;8704;52.006;4.374;2023-04-24T12:43:14;14.40;;;3.03;;
17177;SDS011;8704;52.006;4.374;2023-04-24T12:45:42;15.68;;;3.50;;
17177;SDS011;8704;52.006;4.374;2023-04-24T12:48:11;18.15;;;4.00;;
17177;SDS011;8704;52.006;4.374;2023-04-24T12:50:40;12.00;;;3.60;;
17177;SDS011;8704;52.006;4.374;2023-04-24T12:53:12;12.88;;;3.70;;
17177;SDS011;8704;52.006;4.374;2023-04-24T12:55:41;10.82;;;2.97;;
17177;SDS011;8704;52.006;4.374;2023-04-24T12:58:10;15.02;;;3.97;;
17177;SDS011;8704;52.006;4.374;2023-04-24T13:00:39;10.23;;;2.72;;
17177;SDS011;8704;52.006;4.374;2023-04-24T13:03:09;11.85;;;3.58;;
17177;SDS011;8704;52.006;4.374;2023-04-24T13:05:38;15.80;;;2.75;;
17177;SDS011;8704;52.006;4.374;2023-04-24T13:08:06;10.13;;;3.20;;
17177;SDS011;8704;52.006;4.374;2023-04-24T13:10:34;11.73;;;3.60;;
17177;SDS011;8704;52.006;4.374;2023-04-24T13:13:02;10.80;;;3.42;;
17177;SDS011;8704;52.006;4.374;2023-04-24T13:15:30;11.57;;;3.40;;
17177;SDS011;8704;52.006;4.374;2023-04-24T13:18:00;10.77;;;3.80;;
17177;SDS011;8704;52.006;4.374;2023-04-24T13:20:28;11.13;;;3.80;;
17177;SDS011;8704;52.006;4.374;2023-04-24T13:22:56;14.27;;;3.60;;
17177;SDS011;8704;52.006;4.374;2023-04-24T13:25:24;16.17;;;3.90;;
17177;SDS011;8704;52.006;4.374;2023-04-24T13:27:53;12.70;;;3.40;;
17177;SDS011;8704;52.006;4.374;2023-04-24T13:30:21;9.63;;;3.08;;
17177;SDS011;8704;52.006;4.374;2023-04-24T13:32:49;13.02;;;3.42;;
17177;SDS011;8704;52.006;4.374;2023-04-24T13:35:18;11.73;;;3.42;;
17177;SDS011;8704;52.006;4.374;2023-04-24T13:37:46;7.10;;;2.90;;
17177;SDS011;8704;52.006;4.374;2023-04-24T13:40:14;14.23;;;3.20;;
17177;SDS011;8704;52.006;4.374;2023-04-24T13:42:43;9.75;;;2.80;;
17177;SDS011;8704;52.006;4.374;2023-04-24T13:45:11;12.88;;;3.33;;
17177;SDS011;8704;52.006;4.374;2023-04-24T13:47:50;6.75;;;2.38;;
17177;SDS011;8704;52.006;4.374;2023-04-24T13:50:21;10.45;;;3.22;;
17177;SDS011;8704;52.006;4.374;2023-04-24T13:52:49;13.45;;;3.40;;
17177;SDS011;8704;52.006;4.374;2023-04-24T13:55:17;15.45;;;4.07;;
17177;SDS011;8704;52.006;4.374;2023-04-24T13:57:45;15.35;;;4.10;;
17177;SDS011;8704;52.006;4.374;2023-04-24T14:00:13;12.30;;;4.18;;
17177;SDS011;8704;52.006;4.374;2023-04-24T14:02:42;11.18;;;3.90;;
17177;SDS011;8704;52.006;4.374;2023-04-24T14:05:12;13.20;;;4.10;;
17177;SDS011;8704;52.006;4.374;2023-04-24T14:07:41;17.83;;;4.70;;
17177;SDS011;8704;52.006;4.374;2023-04-24T14:10:09;18.52;;;4.53;;
17177;SDS011;8704;52.006;4.374;2023-04-24T14:12:37;20.20;;;4.50;;
17177;SDS011;8704;52.006;4.374;2023-04-24T14:15:06;14.02;;;4.45;;
17177;SDS011;8704;52.006;4.374;2023-04-24T14:17:35;17.83;;;4.13;;
17177;SDS011;8704;52.006;4.374;2023-04-24T14:20:04;13.15;;;4.35;;
17177;SDS011;8704;52.006;4.374;2023-04-24T14:22:33;13.73;;;4.45;;
17177;SDS011;8704;52.006;4.374;2023-04-24T14:25:02;12.40;;;4.10;;
17177;SDS011;8704;52.006;4.374;2023-04-24T14:27:31;14.75;;;4.32;;
17177;SDS011;8704;52.006;4.374;2023-04-24T14:30:00;14.10;;;4.15;;
17177;SDS011;8704;52.006;4.374;2023-04-24T14:32:29;11.10;;;4.22;;
17177;SDS011;8704;52.006;4.374;2023-04-24T14:34:57;10.48;;;3.63;;
17177;SDS011;8704;52.006;4.374;2023-04-24T14:37:25;11.88;;;3.75;;
17177;SDS011;8704;52.006;4.374;2023-04-24T14:39:53;16.00;;;4.40;;
17177;SDS011;8704;52.006;4.374;2023-04-24T14:42:42;14.02;;;3.72;;
17177;SDS011;8704;52.006;4.374;2023-04-24T14:45:10;17.30;;;3.88;;
17177;SDS011;8704;52.006;4.374;2023-04-24T14:47:38;15.98;;;4.20;;
17177;SDS011;8704;52.006;4.374;2023-04-24T14:50:08;11.43;;;3.63;;
17177;SDS011;8704;52.006;4.374;2023-04-24T14:52:37;11.75;;;3.35;;
17177;SDS011;8704;52.006;4.374;2023-04-24T14:55:05;14.40;;;3.58;;
17177;SDS011;8704;52.006;4.374;2023-04-24T14:57:34;9.60;;;3.30;;
17177;SDS011;8704;52.006;4.374;2023-04-24T15:00:04;7.35;;;2.88;;
17177;SDS011;8704;52.006;4.374;2023-04-24T15:02:34;12.73;;;3.78;;
17177;SDS011;8704;52.006;4.374;2023-04-24T15:05:06;12.00;;;4.05;;
17177;SDS011;8704;52.006;4.374;2023-04-24T15:07:35;13.35;;;3.88;;
17177;SDS011;8704;52.006;4.374;2023-04-24T15:10:04;12.32;;;3.95;;